createdAt,value
2022-09-17T00:01:08.374Z,11.80
2022-09-17T00:03:35.726Z,11.90
2022-09-17T00:06:08.628Z,11.90
2022-09-17T00:08:36.965Z,11.90
2022-09-17T00:11:14.072Z,11.90
2022-09-17T00:13:42.503Z,11.80
2022-09-17T00:16:09.885Z,11.90
2022-09-17T00:18:40.612Z,11.80
2022-09-17T00:21:15.005Z,11.80
2022-09-17T00:23:41.562Z,11.90
2022-09-17T00:26:08.184Z,11.90
2022-09-17T00:28:34.806Z,11.90
2022-09-17T00:31:01.501Z,11.90
2022-09-17T00:33:28.105Z,11.90
2022-09-17T00:36:00.244Z,11.80
2022-09-17T00:38:27.632Z,11.90
2022-09-17T00:40:54.542Z,11.90
2022-09-17T00:43:46.513Z,11.90
2022-09-17T00:46:38.537Z,11.90
2022-09-17T00:49:11.073Z,11.90
2022-09-17T00:51:41.962Z,11.90
2022-09-17T00:54:10.462Z,11.90
2022-09-17T00:56:40.146Z,11.90
2022-09-17T00:59:08.494Z,11.90
2022-09-17T01:01:35.949Z,12.00
2022-09-17T01:04:03.499Z,12.00
2022-09-17T01:06:46.604Z,12.00
2022-09-17T01:09:49.866Z,12.00
2022-09-17T01:12:40.214Z,12.00
2022-09-17T01:15:20.721Z,12.00
2022-09-17T01:18:14.088Z,12.10
2022-09-17T01:21:11.432Z,12.00
2022-09-17T01:24:17.269Z,12.00
2022-09-17T01:26:59.223Z,12.10
2022-09-17T01:29:53.677Z,12.00
2022-09-17T01:32:42.616Z,12.10
2022-09-17T01:35:13.061Z,12.00
2022-09-17T01:38:05.105Z,12.00
2022-09-17T01:40:32.366Z,12.00
2022-09-17T01:43:17.084Z,12.10
2022-09-17T01:46:01.045Z,12.00
2022-09-17T01:48:35.829Z,12.00
2022-09-17T01:51:08.762Z,12.00
2022-09-17T01:53:43.589Z,12.00
2022-09-17T01:56:14.572Z,12.00
2022-09-17T01:58:51.408Z,12.00
2022-09-17T02:01:22.071Z,12.00
2022-09-17T02:03:58.388Z,12.00
2022-09-17T02:06:30.879Z,12.10
2022-09-17T02:09:15.519Z,12.10
2022-09-17T02:11:44.301Z,12.20
2022-09-17T02:14:15.478Z,12.10
2022-09-17T02:16:50.022Z,12.10
2022-09-17T02:19:30.481Z,12.10
2022-09-17T02:22:03.065Z,12.10
2022-09-17T02:24:51.252Z,12.10
2022-09-17T02:27:39.051Z,12.20
2022-09-17T02:30:06.744Z,12.10
2022-09-17T02:32:33.486Z,12.10
2022-09-17T02:35:00.228Z,12.10
2022-09-17T02:37:27.682Z,12.10
2022-09-17T02:39:55.132Z,12.10
2022-09-17T02:42:40.265Z,12.10
2022-09-17T02:45:34.861Z,12.10
2022-09-17T02:48:49.365Z,12.00
2022-09-17T02:51:41.015Z,12.00
2022-09-17T02:54:23.966Z,12.00
2022-09-17T02:57:09.429Z,12.10
2022-09-17T02:59:44.640Z,12.10
2022-09-17T03:02:47.261Z,12.10
2022-09-17T03:05:17.168Z,12.10
2022-09-17T03:07:43.961Z,12.10
2022-09-17T03:10:10.813Z,12.00
2022-09-17T03:12:38.495Z,12.10
2022-09-17T03:15:05.860Z,12.10
2022-09-17T03:17:32.751Z,12.10
2022-09-17T03:19:59.354Z,12.10
2022-09-17T03:22:26.112Z,12.10
2022-09-17T03:24:52.903Z,12.10
2022-09-17T03:27:19.477Z,12.10
2022-09-17T03:29:46.056Z,12.10
2022-09-17T03:32:12.741Z,12.10
2022-09-17T03:34:39.370Z,12.00
2022-09-17T03:37:05.968Z,12.10
2022-09-17T03:39:32.565Z,12.10
2022-09-17T03:41:59.213Z,12.10
2022-09-17T03:44:25.858Z,12.10
2022-09-17T03:46:52.517Z,12.10
2022-09-17T03:49:19.131Z,12.10
2022-09-17T03:51:45.867Z,12.10
2022-09-17T03:54:12.554Z,12.10
2022-09-17T03:56:39.149Z,12.10
2022-09-17T03:59:05.786Z,12.20
2022-09-17T04:01:32.649Z,12.20
2022-09-17T04:03:59.419Z,12.20
2022-09-17T04:06:26.132Z,12.20
2022-09-17T04:08:53.066Z,12.20
2022-09-17T04:11:19.673Z,12.20
2022-09-17T04:13:46.371Z,12.20
2022-09-17T04:16:13.069Z,12.20
2022-09-17T04:18:39.755Z,12.20
2022-09-17T04:21:06.652Z,12.20
2022-09-17T04:23:33.324Z,12.20
2022-09-17T04:26:00.121Z,12.20
2022-09-17T04:28:26.977Z,12.20
2022-09-17T04:30:53.574Z,12.20
2022-09-17T04:33:20.216Z,12.20
2022-09-17T04:35:46.902Z,12.20
2022-09-17T04:38:18.585Z,12.20
2022-09-17T04:40:46.483Z,12.20
2022-09-17T04:43:13.756Z,12.20
2022-09-17T04:45:40.379Z,12.20
2022-09-17T04:48:07.137Z,12.20
2022-09-17T04:50:33.725Z,12.20
2022-09-17T04:53:00.304Z,12.30
2022-09-17T04:55:27.591Z,12.30
2022-09-17T04:57:54.659Z,12.30
2022-09-17T05:00:22.986Z,12.30
2022-09-17T05:02:53.398Z,12.20
2022-09-17T05:05:20.547Z,12.20
2022-09-17T05:07:47.359Z,12.30
2022-09-17T05:10:15.462Z,12.40
2022-09-17T05:12:47.043Z,12.30
2022-09-17T05:15:13.810Z,12.40
2022-09-17T05:17:40.436Z,12.30
2022-09-17T05:20:07.378Z,12.30
2022-09-17T05:22:33.960Z,12.30
2022-09-17T05:25:00.623Z,12.40
2022-09-17T05:27:27.219Z,12.30
2022-09-17T05:29:53.792Z,12.40
2022-09-17T05:32:20.429Z,12.40
2022-09-17T05:34:46.964Z,12.40
2022-09-17T05:37:14.070Z,12.40
2022-09-17T05:39:40.729Z,12.30
2022-09-17T05:42:07.441Z,12.30
2022-09-17T05:44:34.017Z,12.40
2022-09-17T05:47:00.761Z,12.40
2022-09-17T05:49:27.567Z,12.40
2022-09-17T05:51:54.232Z,12.40
2022-09-17T05:54:20.877Z,12.40
2022-09-17T05:56:47.513Z,12.40
2022-09-17T05:59:15.805Z,12.40
2022-09-17T06:01:42.678Z,12.30
2022-09-17T06:04:09.635Z,12.40
2022-09-17T06:06:37.781Z,12.40
2022-09-17T06:09:05.126Z,12.40
2022-09-17T06:11:32.420Z,12.50
2022-09-17T06:13:59.070Z,12.50
2022-09-17T06:16:26.588Z,12.50
2022-09-17T06:18:53.239Z,12.50
2022-09-17T06:21:21.873Z,12.60
2022-09-17T06:23:51.779Z,12.60
2022-09-17T06:26:18.608Z,12.60
2022-09-17T06:28:45.386Z,12.70
2022-09-17T06:31:13.620Z,12.80
2022-09-17T06:33:40.534Z,12.80
2022-09-17T06:36:14.100Z,12.90
2022-09-17T06:38:41.565Z,13.00
2022-09-17T06:41:08.203Z,13.10
2022-09-17T06:43:34.942Z,13.20
2022-09-17T06:46:05.561Z,13.30
2022-09-17T06:48:34.816Z,13.20
2022-09-17T06:51:03.946Z,13.20
2022-09-17T06:53:31.269Z,13.20
2022-09-17T06:56:03.661Z,13.20
2022-09-17T06:58:33.924Z,13.20
2022-09-17T07:01:05.058Z,13.20
2022-09-17T07:03:32.030Z,13.20
2022-09-17T07:05:58.836Z,13.30
2022-09-17T07:08:26.147Z,13.40
2022-09-17T07:10:56.680Z,13.40
2022-09-17T07:13:24.017Z,13.50
2022-09-17T07:15:58.774Z,13.40
2022-09-17T07:18:25.955Z,13.40
2022-09-17T07:20:55.013Z,13.30
2022-09-17T07:23:26.753Z,13.30
2022-09-17T07:25:55.361Z,13.20
2022-09-17T07:28:22.751Z,13.10
2022-09-17T07:30:50.942Z,13.20
2022-09-17T07:33:23.177Z,13.20
2022-09-17T07:35:54.789Z,13.40
2022-09-17T07:38:22.668Z,13.40
2022-09-17T07:41:13.004Z,13.50
2022-09-17T07:43:40.591Z,13.50
2022-09-17T07:46:08.343Z,13.40
2022-09-17T07:48:35.094Z,13.40
2022-09-17T07:51:01.856Z,13.40
2022-09-17T07:53:28.510Z,13.50
2022-09-17T07:55:56.980Z,13.60
2022-09-17T07:58:28.312Z,13.70
2022-09-17T08:01:04.309Z,13.80
2022-09-17T08:03:30.985Z,13.90
2022-09-17T08:06:08.906Z,13.80
2022-09-17T08:08:36.656Z,13.70
2022-09-17T08:11:09.224Z,13.70
2022-09-17T08:13:36.099Z,13.60
2022-09-17T08:16:05.886Z,13.50
2022-09-17T08:18:33.578Z,13.40
2022-09-17T08:21:01.211Z,13.40
2022-09-17T08:23:29.269Z,13.30
2022-09-17T08:25:58.078Z,13.40
2022-09-17T08:28:27.545Z,13.40
2022-09-17T08:30:54.880Z,13.40
2022-09-17T08:33:21.649Z,13.50
2022-09-17T08:35:55.480Z,13.50
2022-09-17T08:38:22.231Z,13.60
2022-09-17T08:41:17.200Z,13.60
2022-09-17T08:43:50.834Z,13.70
2022-09-17T08:46:17.688Z,13.80
2022-09-17T08:49:14.933Z,13.90
2022-09-17T08:52:04.085Z,14.00
2022-09-17T08:54:42.553Z,14.10
2022-09-17T08:57:11.906Z,14.10
2022-09-17T09:00:09.765Z,14.10
2022-09-17T09:02:39.610Z,14.10
2022-09-17T09:05:15.634Z,14.10
2022-09-17T09:07:51.705Z,14.00
2022-09-17T09:10:28.997Z,14.10
2022-09-17T09:12:59.449Z,14.10
2022-09-17T09:15:38.183Z,14.10
2022-09-17T09:18:22.933Z,14.20
2022-09-17T09:21:08.816Z,14.70
2022-09-17T09:23:54.472Z,15.00
2022-09-17T09:26:44.830Z,15.30
2022-09-17T09:29:20.247Z,15.70
2022-09-17T09:32:20.489Z,16.10
2022-09-17T09:34:49.037Z,15.80
2022-09-17T09:37:36.968Z,15.40
2022-09-17T09:40:28.384Z,15.20
2022-09-17T09:42:59.973Z,14.90
2022-09-17T09:45:40.553Z,14.60
2022-09-17T09:48:20.697Z,14.50
2022-09-17T09:51:23.873Z,14.70
2022-09-17T09:54:02.854Z,15.20
2022-09-17T09:56:32.447Z,15.80
2022-09-17T09:58:59.113Z,16.00
2022-09-17T10:01:28.695Z,15.80
2022-09-17T10:03:58.188Z,15.90
2022-09-17T10:06:29.329Z,15.70
2022-09-17T10:08:56.004Z,15.60
2022-09-17T10:11:30.354Z,15.40
2022-09-17T10:14:23.289Z,15.20
2022-09-17T10:16:50.404Z,15.20
2022-09-17T10:19:25.723Z,15.00
2022-09-17T10:21:53.135Z,14.90
2022-09-17T10:24:28.799Z,14.80
2022-09-17T10:27:05.719Z,14.70
2022-09-17T10:29:35.634Z,14.60
2022-09-17T10:32:06.808Z,14.50
2022-09-17T10:34:34.266Z,14.50
2022-09-17T10:37:00.861Z,14.40
2022-09-17T10:39:27.617Z,14.40
2022-09-17T10:41:58.870Z,14.50
2022-09-17T10:44:28.322Z,14.40
2022-09-17T10:47:01.496Z,14.30
2022-09-17T10:49:53.760Z,14.30
2022-09-17T10:52:23.952Z,14.40
2022-09-17T10:55:16.821Z,14.60
2022-09-17T10:58:09.540Z,15.20
2022-09-17T11:00:46.530Z,15.70
2022-09-17T11:03:47.529Z,16.00
2022-09-17T11:06:34.756Z,16.20
2022-09-17T11:09:25.673Z,16.40
2022-09-17T11:12:19.847Z,16.40
2022-09-17T11:15:05.603Z,16.50
2022-09-17T11:17:57.336Z,16.40
2022-09-17T11:21:09.326Z,16.40
2022-09-17T11:23:59.708Z,16.50
2022-09-17T11:26:50.982Z,15.80
2022-09-17T11:29:51.139Z,15.20
2022-09-17T11:32:40.813Z,14.80
2022-09-17T11:35:31.048Z,14.60
2022-09-17T11:38:23.104Z,14.50
2022-09-17T11:41:01.413Z,14.40
2022-09-17T11:43:32.390Z,14.40
2022-09-17T11:46:11.189Z,14.50
2022-09-17T11:48:51.381Z,14.80
2022-09-17T11:51:28.139Z,15.20
2022-09-17T11:54:02.709Z,15.70
2022-09-17T11:56:52.298Z,16.10
2022-09-17T11:59:23.947Z,16.30
2022-09-17T12:02:00.383Z,16.50
2022-09-17T12:04:42.641Z,16.80
2022-09-17T12:07:45.731Z,17.20
2022-09-17T12:10:24.265Z,16.90
2022-09-17T12:12:58.049Z,16.40
2022-09-17T12:15:28.786Z,16.00
2022-09-17T12:18:32.370Z,15.70
2022-09-17T12:21:01.890Z,15.80
2022-09-17T12:23:38.707Z,15.70
2022-09-17T12:26:46.239Z,15.60
2022-09-17T12:29:40.105Z,15.40
2022-09-17T12:32:31.214Z,15.10
2022-09-17T12:35:13.461Z,14.80
2022-09-17T12:38:07.320Z,14.90
2022-09-17T12:41:00.898Z,15.00
2022-09-17T12:43:28.802Z,15.40
2022-09-17T12:46:13.450Z,15.90
2022-09-17T12:49:07.838Z,16.20
2022-09-17T12:51:59.557Z,16.80
2022-09-17T12:54:45.294Z,17.50
2022-09-17T12:57:53.529Z,17.60
2022-09-17T13:00:20.398Z,17.90
2022-09-17T13:03:13.195Z,17.50
2022-09-17T13:06:00.788Z,17.10
2022-09-17T13:08:49.031Z,16.30
2022-09-17T13:11:46.351Z,16.10
2022-09-17T13:14:30.096Z,15.70
2022-09-17T13:17:11.926Z,15.60
2022-09-17T13:19:41.533Z,15.50
2022-09-17T13:22:18.354Z,15.60
2022-09-17T13:24:47.750Z,15.80
2022-09-17T13:27:28.220Z,16.50
2022-09-17T13:29:54.779Z,17.20
2022-09-17T13:32:48.961Z,17.60
2022-09-17T13:35:15.510Z,17.50
2022-09-17T13:37:53.824Z,17.20
2022-09-17T13:40:23.739Z,16.90
2022-09-17T13:42:57.165Z,17.00
2022-09-17T13:45:25.805Z,16.70
2022-09-17T13:47:54.417Z,16.60
2022-09-17T13:50:34.074Z,16.30
2022-09-17T13:53:15.547Z,16.10
2022-09-17T13:55:48.174Z,16.40
2022-09-17T13:58:20.830Z,16.50
2022-09-17T14:00:56.396Z,17.10
2022-09-17T14:03:30.742Z,17.30
2022-09-17T14:06:18.792Z,17.60
2022-09-17T14:08:45.588Z,17.90
2022-09-17T14:11:26.392Z,18.20
2022-09-17T14:13:55.263Z,18.30
2022-09-17T14:16:35.908Z,18.30
2022-09-17T14:19:24.138Z,18.30
2022-09-17T14:22:05.990Z,18.50
2022-09-17T14:24:44.932Z,18.60
2022-09-17T14:27:58.097Z,18.60
2022-09-17T14:30:31.208Z,18.50
2022-09-17T14:33:00.889Z,18.30
2022-09-17T14:35:36.607Z,18.40
2022-09-17T14:38:12.703Z,18.40
2022-09-17T14:40:47.618Z,18.20
2022-09-17T14:43:26.271Z,18.00
2022-09-17T14:45:53.525Z,17.60
2022-09-17T14:48:32.143Z,17.40
2022-09-17T14:51:17.655Z,17.20
2022-09-17T14:54:07.131Z,17.10
2022-09-17T14:56:40.393Z,16.90
2022-09-17T14:59:21.037Z,16.90
2022-09-17T15:01:48.763Z,16.70
2022-09-17T15:04:15.316Z,16.30
2022-09-17T15:06:43.537Z,16.20
2022-09-17T15:09:18.769Z,16.00
2022-09-17T15:11:48.063Z,15.80
2022-09-17T15:14:22.175Z,15.70
2022-09-17T15:16:49.635Z,15.60
2022-09-17T15:19:28.514Z,15.60
2022-09-17T15:21:57.973Z,15.50
2022-09-17T15:24:39.524Z,15.60
2022-09-17T15:27:12.730Z,15.90
2022-09-17T15:29:46.831Z,16.00
2022-09-17T15:32:14.161Z,16.00
2022-09-17T15:34:41.681Z,16.00
2022-09-17T15:37:25.516Z,15.90
2022-09-17T15:39:55.490Z,15.80
2022-09-17T15:42:31.685Z,15.70
2022-09-17T15:45:21.583Z,15.50
2022-09-17T15:47:56.685Z,15.30
2022-09-17T15:50:28.372Z,15.10
2022-09-17T15:53:12.381Z,15.00
2022-09-17T15:55:45.834Z,15.00
2022-09-17T15:58:33.026Z,14.80
2022-09-17T16:01:14.988Z,14.60
2022-09-17T16:03:44.462Z,14.60
2022-09-17T16:06:20.792Z,14.60
2022-09-17T16:08:51.897Z,14.60
2022-09-17T16:11:20.186Z,14.50
2022-09-17T16:13:47.569Z,14.40
2022-09-17T16:16:34.139Z,14.40
2022-09-17T16:19:01.530Z,14.30
2022-09-17T16:21:28.982Z,14.30
2022-09-17T16:23:57.949Z,14.30
2022-09-17T16:26:35.693Z,14.30
2022-09-17T16:29:17.405Z,14.20
2022-09-17T16:31:44.882Z,14.20
2022-09-17T16:34:11.613Z,14.10
2022-09-17T16:36:38.305Z,14.00
2022-09-17T16:39:05.241Z,13.90
2022-09-17T16:41:31.873Z,13.70
2022-09-17T16:43:58.539Z,13.60
2022-09-17T16:46:25.915Z,13.50
2022-09-17T16:48:52.773Z,13.50
2022-09-17T16:51:19.475Z,13.40
2022-09-17T16:53:46.342Z,13.30
2022-09-17T16:56:14.834Z,13.30
2022-09-17T16:58:41.726Z,13.20
2022-09-17T17:01:09.950Z,13.10
2022-09-17T17:03:36.800Z,13.00
2022-09-17T17:06:03.918Z,12.90
2022-09-17T17:08:34.334Z,12.80
2022-09-17T17:11:01.427Z,12.80
2022-09-17T17:13:28.116Z,12.70
2022-09-17T17:15:55.249Z,12.60
2022-09-17T17:18:22.361Z,12.70
2022-09-17T17:20:48.951Z,12.60
2022-09-17T17:23:16.089Z,12.60
2022-09-17T17:25:42.639Z,12.60
2022-09-17T17:28:10.071Z,12.50
2022-09-17T17:30:38.454Z,12.50
2022-09-17T17:33:05.519Z,12.40
2022-09-17T17:35:32.411Z,12.40
2022-09-17T17:37:59.217Z,12.40
2022-09-17T17:40:26.709Z,12.30
2022-09-17T17:42:53.596Z,12.30
2022-09-17T17:45:20.221Z,12.30
2022-09-17T17:47:46.979Z,12.30
2022-09-17T17:50:13.625Z,12.20
2022-09-17T17:52:43.356Z,12.20
2022-09-17T17:55:10.345Z,12.10
2022-09-17T17:57:36.939Z,12.10
2022-09-17T18:00:04.306Z,12.10
2022-09-17T18:02:31.006Z,12.10
2022-09-17T18:05:02.033Z,12.10
2022-09-17T18:07:30.645Z,12.10
2022-09-17T18:09:57.222Z,12.20
2022-09-17T18:12:26.831Z,12.20
2022-09-17T18:14:53.836Z,12.20
2022-09-17T18:17:20.557Z,12.30
2022-09-17T18:19:47.169Z,12.30
2022-09-17T18:22:14.205Z,12.30
2022-09-17T18:24:40.774Z,12.30
2022-09-17T18:27:07.532Z,12.20
2022-09-17T18:29:34.098Z,12.20
2022-09-17T18:32:00.821Z,12.30
2022-09-17T18:34:27.485Z,12.30
2022-09-17T18:36:54.089Z,12.20
2022-09-17T18:39:56.730Z,12.20
2022-09-17T18:42:08.433Z,12.10
2022-09-17T18:44:35.053Z,12.20
2022-09-17T18:47:01.885Z,12.10
2022-09-17T18:49:28.777Z,12.00
2022-09-17T18:51:55.417Z,12.10
2022-09-17T18:54:22.001Z,12.00
2022-09-17T18:56:48.640Z,12.00
2022-09-17T18:59:15.274Z,12.10
2022-09-17T19:01:42.052Z,12.00
2022-09-17T19:04:08.787Z,12.00
2022-09-17T19:06:35.669Z,12.00
2022-09-17T19:09:03.914Z,11.90
2022-09-17T19:11:30.735Z,12.00
2022-09-17T19:13:57.905Z,11.90
2022-09-17T19:16:24.692Z,11.90
2022-09-17T19:18:51.463Z,11.90
2022-09-17T19:21:20.532Z,11.90
2022-09-17T19:23:49.070Z,11.90
2022-09-17T19:26:19.281Z,11.90
2022-09-17T19:28:46.281Z,11.80
2022-09-17T19:31:15.735Z,11.80
2022-09-17T19:33:43.286Z,11.90
2022-09-17T19:36:15.511Z,11.80
2022-09-17T19:38:42.723Z,11.90
2022-09-17T19:41:15.096Z,11.80
2022-09-17T19:43:41.968Z,11.80
2022-09-17T19:46:14.199Z,11.80
2022-09-17T19:48:45.696Z,11.70
2022-09-17T19:51:12.936Z,11.70
2022-09-17T19:53:39.938Z,11.60
2022-09-17T19:56:15.148Z,11.70
2022-09-17T19:58:42.496Z,11.70
2022-09-17T20:01:09.873Z,11.70
2022-09-17T20:03:39.108Z,11.60
2022-09-17T20:06:08.104Z,11.60
2022-09-17T20:08:39.253Z,11.60
2022-09-17T20:11:10.439Z,11.60
2022-09-17T20:13:37.542Z,11.50
2022-09-17T20:16:16.002Z,11.50
2022-09-17T20:18:46.062Z,11.50
2022-09-17T20:21:24.776Z,11.50
2022-09-17T20:23:51.958Z,11.40
2022-09-17T20:26:18.545Z,11.30
2022-09-17T20:28:46.250Z,11.30
2022-09-17T20:31:14.666Z,11.30
2022-09-17T20:33:42.063Z,11.30
2022-09-17T20:36:12.912Z,11.20
2022-09-17T20:41:27.799Z,11.10
2022-09-17T20:43:54.897Z,11.10
2022-09-17T20:46:28.350Z,11.10
2022-09-17T20:48:57.827Z,11.10
2022-09-17T20:51:26.871Z,11.10
2022-09-17T20:53:53.915Z,11.00
2022-09-17T20:56:27.124Z,11.00
2022-09-17T20:59:12.892Z,11.00
2022-09-17T21:01:40.802Z,11.00
2022-09-17T21:04:08.745Z,11.00
2022-09-17T21:06:41.051Z,10.90
2022-09-17T21:09:11.844Z,10.90
2022-09-17T21:11:38.534Z,10.90
2022-09-17T21:14:05.626Z,10.90
2022-09-17T21:16:32.306Z,10.90
2022-09-17T21:19:02.362Z,11.00
2022-09-17T21:21:29.669Z,10.90
2022-09-17T21:24:01.256Z,10.90
2022-09-17T21:26:28.497Z,10.80
2022-09-17T21:28:56.459Z,10.90
2022-09-17T21:31:31.093Z,10.80
2022-09-17T21:34:01.264Z,10.80
2022-09-17T21:36:31.657Z,10.80
2022-09-17T21:39:03.959Z,10.80
2022-09-17T21:41:30.808Z,10.80
2022-09-17T21:43:57.825Z,10.80
2022-09-17T21:46:27.058Z,10.80
2022-09-17T21:49:04.293Z,10.80
2022-09-17T21:51:36.421Z,10.80
2022-09-17T21:54:08.765Z,10.80
2022-09-17T21:56:36.276Z,10.80
2022-09-17T21:59:05.317Z,10.90
2022-09-17T22:01:40.727Z,10.90
2022-09-17T22:04:13.059Z,10.80
2022-09-17T22:06:40.305Z,10.80
2022-09-17T22:09:12.203Z,10.80
2022-09-17T22:11:38.790Z,10.70
2022-09-17T22:14:13.978Z,10.70
2022-09-17T22:16:45.761Z,10.70
2022-09-17T22:19:15.765Z,10.80
2022-09-17T22:21:46.590Z,10.80
2022-09-17T22:24:14.972Z,10.80
2022-09-17T22:26:44.093Z,10.80
2022-09-17T22:29:13.415Z,10.80
2022-09-17T22:31:40.688Z,10.90
2022-09-17T22:34:09.609Z,10.90
2022-09-17T22:36:36.576Z,10.90
2022-09-17T22:39:04.930Z,11.00
2022-09-17T22:41:36.088Z,10.90
2022-09-17T22:44:07.621Z,10.90
2022-09-17T22:46:39.050Z,10.80
2022-09-17T22:49:07.199Z,10.90
2022-09-17T22:51:34.132Z,10.90
2022-09-17T22:54:00.956Z,10.90
2022-09-17T22:56:28.900Z,10.90
2022-09-17T22:58:59.115Z,10.90
2022-09-17T23:01:31.052Z,10.90
2022-09-17T23:03:58.987Z,10.90
2022-09-17T23:06:28.194Z,10.90
2022-09-17T23:08:55.471Z,10.90
2022-09-17T23:11:26.588Z,11.00
2022-09-17T23:13:54.875Z,11.00
2022-09-17T23:16:21.502Z,11.00
2022-09-17T23:18:48.185Z,11.00
2022-09-17T23:21:17.181Z,11.00
2022-09-17T23:23:46.173Z,11.00
2022-09-17T23:26:15.722Z,11.00
2022-09-17T23:28:42.795Z,11.00
2022-09-17T23:31:17.588Z,11.00
2022-09-17T23:33:45.048Z,11.00
2022-09-17T23:36:17.287Z,11.10
2022-09-17T23:38:45.549Z,11.10
2022-09-17T23:41:17.108Z,11.10
2022-09-17T23:43:45.706Z,11.10
2022-09-17T23:46:12.674Z,11.10
2022-09-17T23:48:39.801Z,11.10
2022-09-17T23:51:07.288Z,11.10
2022-09-17T23:53:35.735Z,11.10
2022-09-17T23:56:04.529Z,11.10
2022-09-17T23:58:34.357Z,11.10
